Terminal Aerodrome Forecast
Issued by NWS Amarillo, TX

Home | Current Version | Previous Version | Text Only | Print | Product List | Glossary On
Versions: 1 2 3 4 5 6 7 8 9 10 11 12 13 14 15 16 17 18 19 20 21 22 23 24 25 26 27 28 29 30 31
000
FTUS44 KAMA 212300
TAFAMA
TAF
KAMA 212320Z 2200/2224 10008KT P6SM VCTS BKN090CB
      TEMPO 2200/2204 VRB25G35KT 3SM TSRA BKN020CB
     FM220400 10008KT P6SM BKN100
     FM221000 13008KT P6SM BKN015
     FM221700 16014KT P6SM BKN080=

USA.gov is the U.S. government's official web portal to all federal, state and local government web resources and services.